sensor_id;sensor_type;location;lat;lon;timestamp;temperature;humidity
8593;DHT22;4334;49.982;8.398;2023-05-24T00:09:48;10.50;99.90
8593;DHT22;4334;49.982;8.398;2023-05-24T00:27:00;10.40;99.90
8593;DHT22;4334;49.982;8.398;2023-05-24T00:44:10;10.30;99.90
8593;DHT22;4334;49.982;8.398;2023-05-24T01:01:22;9.40;99.90
8593;DHT22;4334;49.982;8.398;2023-05-24T01:09:06;9.60;99.90
8593;DHT22;4334;49.982;8.398;2023-05-24T01:11:38;9.50;99.90
8593;DHT22;4334;49.982;8.398;2023-05-24T01:14:15;9.50;99.90
8593;DHT22;4334;49.982;8.398;2023-05-24T01:16:50;9.40;99.90
8593;DHT22;4334;49.982;8.398;2023-05-24T01:19:42;9.40;99.90
8593;DHT22;4334;49.982;8.398;2023-05-24T01:22:27;9.40;99.90
8593;DHT22;4334;49.982;8.398;2023-05-24T01:27:29;9.40;99.90
8593;DHT22;4334;49.982;8.398;2023-05-24T01:42:21;9.40;99.90
8593;DHT22;4334;49.982;8.398;2023-05-24T01:44:56;9.30;99.90
8593;DHT22;4334;49.982;8.398;2023-05-24T01:47:33;9.30;99.90
8593;DHT22;4334;49.982;8.398;2023-05-24T01:50:10;9.30;99.90
8593;DHT22;4334;49.982;8.398;2023-05-24T01:52:41;9.40;99.90
8593;DHT22;4334;49.982;8.398;2023-05-24T01:57:37;9.50;99.90
8593;DHT22;4334;49.982;8.398;2023-05-24T02:00:09;9.60;99.90
8593;DHT22;4334;49.982;8.398;2023-05-24T02:17:22;10.00;99.90
8593;DHT22;4334;49.982;8.398;2023-05-24T02:34:36;10.00;99.90
8593;DHT22;4334;49.982;8.398;2023-05-24T02:51:47;9.80;99.90
8593;DHT22;4334;49.982;8.398;2023-05-24T03:09:00;9.60;99.90
8593;DHT22;4334;49.982;8.398;2023-05-24T03:26:13;10.00;99.90
8593;DHT22;4334;49.982;8.398;2023-05-24T03:43:24;10.10;99.90
8593;DHT22;4334;49.982;8.398;2023-05-24T04:00:35;9.80;99.90
8593;DHT22;4334;49.982;8.398;2023-05-24T04:17:50;9.50;99.90
8593;DHT22;4334;49.982;8.398;2023-05-24T04:30:13;9.60;99.90
8593;DHT22;4334;49.982;8.398;2023-05-24T04:45:04;10.60;99.90
8593;DHT22;4334;49.982;8.398;2023-05-24T04:49:58;11.60;99.90
8593;DHT22;4334;49.982;8.398;2023-05-24T04:52:26;11.70;99.90
8593;DHT22;4334;49.982;8.398;2023-05-24T05:04:43;12.10;99.90
8593;DHT22;4334;49.982;8.398;2023-05-24T05:09:39;12.10;99.90
8593;DHT22;4334;49.982;8.398;2023-05-24T05:14:32;12.70;99.90
8593;DHT22;4334;49.982;8.398;2023-05-24T05:17:02;12.90;99.90
8593;DHT22;4334;49.982;8.398;2023-05-24T05:19:28;12.70;99.90
8593;DHT22;4334;49.982;8.398;2023-05-24T05:21:58;13.20;99.90
8593;DHT22;4334;49.982;8.398;2023-05-24T05:24:25;13.30;99.90
8593;DHT22;4334;49.982;8.398;2023-05-24T05:26:53;16.60;99.90
8593;DHT22;4334;49.982;8.398;2023-05-24T05:29:20;14.30;99.90
8593;DHT22;4334;49.982;8.398;2023-05-24T05:34:14;15.10;99.90
8593;DHT22;4334;49.982;8.398;2023-05-24T05:36:40;15.40;99.90
8593;DHT22;4334;49.982;8.398;2023-05-24T05:39:07;15.50;99.90
8593;DHT22;4334;49.982;8.398;2023-05-24T05:41:37;15.70;99.90
8593;DHT22;4334;49.982;8.398;2023-05-24T05:44:05;17.10;99.90
8593;DHT22;4334;49.982;8.398;2023-05-24T05:46:32;14.60;99.90
8593;DHT22;4334;49.982;8.398;2023-05-24T05:48:59;14.50;99.90
8593;DHT22;4334;49.982;8.398;2023-05-24T05:51:25;14.60;99.90
8593;DHT22;4334;49.982;8.398;2023-05-24T05:53:52;14.10;99.90
8593;DHT22;4334;49.982;8.398;2023-05-24T05:56:19;18.20;99.90
8593;DHT22;4334;49.982;8.398;2023-05-24T05:58:45;14.70;99.90
8593;DHT22;4334;49.982;8.398;2023-05-24T06:01:14;14.70;99.90
8593;DHT22;4334;49.982;8.398;2023-05-24T06:03:41;14.90;99.90
8593;DHT22;4334;49.982;8.398;2023-05-24T06:06:08;14.80;99.90
8593;DHT22;4334;49.982;8.398;2023-05-24T06:08:35;14.80;99.90
8593;DHT22;4334;49.982;8.398;2023-05-24T06:13:29;14.10;99.90
8593;DHT22;4334;49.982;8.398;2023-05-24T06:15:57;13.50;99.90
8593;DHT22;4334;49.982;8.398;2023-05-24T06:18:25;13.60;99.90
8593;DHT22;4334;49.982;8.398;2023-05-24T06:20:54;13.30;99.90
8593;DHT22;4334;49.982;8.398;2023-05-24T06:23:21;13.90;99.90
8593;DHT22;4334;49.982;8.398;2023-05-24T06:25:48;14.10;99.90
8593;DHT22;4334;49.982;8.398;2023-05-24T06:28:15;15.00;99.90
8593;DHT22;4334;49.982;8.398;2023-05-24T06:30:41;15.50;99.90
8593;DHT22;4334;49.982;8.398;2023-05-24T06:33:09;15.70;99.90
8593;DHT22;4334;49.982;8.398;2023-05-24T06:35:37;17.80;99.90
8593;DHT22;4334;49.982;8.398;2023-05-24T06:38:04;18.30;99.90
8593;DHT22;4334;49.982;8.398;2023-05-24T06:40:31;15.40;99.90
8593;DHT22;4334;49.982;8.398;2023-05-24T06:42:57;15.70;99.90
8593;DHT22;4334;49.982;8.398;2023-05-24T06:45:24;14.80;99.90
8593;DHT22;4334;49.982;8.398;2023-05-24T06:47:51;13.90;99.90
8593;DHT22;4334;49.982;8.398;2023-05-24T06:50:17;14.10;99.90
8593;DHT22;4334;49.982;8.398;2023-05-24T06:52:45;14.60;99.90
8593;DHT22;4334;49.982;8.398;2023-05-24T06:55:12;14.70;99.90
8593;DHT22;4334;49.982;8.398;2023-05-24T06:57:39;18.00;99.90
8593;DHT22;4334;49.982;8.398;2023-05-24T07:00:07;14.80;99.90
8593;DHT22;4334;49.982;8.398;2023-05-24T07:02:36;14.60;99.90
8593;DHT22;4334;49.982;8.398;2023-05-24T07:05:04;14.00;99.90
8593;DHT22;4334;49.982;8.398;2023-05-24T07:07:32;14.70;99.90
8593;DHT22;4334;49.982;8.398;2023-05-24T07:10:00;15.70;99.90
8593;DHT22;4334;49.982;8.398;2023-05-24T07:12:27;16.20;99.90
8593;DHT22;4334;49.982;8.398;2023-05-24T07:14:54;16.10;99.90
8593;DHT22;4334;49.982;8.398;2023-05-24T07:17:23;16.00;99.90
8593;DHT22;4334;49.982;8.398;2023-05-24T07:19:50;15.90;99.90
8593;DHT22;4334;49.982;8.398;2023-05-24T07:22:17;15.60;99.90
8593;DHT22;4334;49.982;8.398;2023-05-24T07:24:44;15.30;99.90
8593;DHT22;4334;49.982;8.398;2023-05-24T07:27:12;15.20;99.90
8593;DHT22;4334;49.982;8.398;2023-05-24T07:29:38;15.30;99.90
8593;DHT22;4334;49.982;8.398;2023-05-24T07:32:06;15.30;99.90
8593;DHT22;4334;49.982;8.398;2023-05-24T07:34:33;15.20;99.90
8593;DHT22;4334;49.982;8.398;2023-05-24T07:37:00;15.90;99.90
8593;DHT22;4334;49.982;8.398;2023-05-24T07:39:27;16.20;99.90
8593;DHT22;4334;49.982;8.398;2023-05-24T07:41:53;16.20;99.90
8593;DHT22;4334;49.982;8.398;2023-05-24T07:44:22;16.30;99.90
8593;DHT22;4334;49.982;8.398;2023-05-24T07:46:49;16.00;99.90
8593;DHT22;4334;49.982;8.398;2023-05-24T07:49:16;16.30;99.90
8593;DHT22;4334;49.982;8.398;2023-05-24T07:51:44;16.60;99.90
8593;DHT22;4334;49.982;8.398;2023-05-24T07:54:10;17.70;99.90
8593;DHT22;4334;49.982;8.398;2023-05-24T07:56:37;17.50;98.80
8593;DHT22;4334;49.982;8.398;2023-05-24T07:59:04;17.50;98.90
8593;DHT22;4334;49.982;8.398;2023-05-24T08:01:33;16.50;99.70
8593;DHT22;4334;49.982;8.398;2023-05-24T08:04:01;16.40;99.90
8593;DHT22;4334;49.982;8.398;2023-05-24T08:06:28;16.80;98.90
8593;DHT22;4334;49.982;8.398;2023-05-24T08:08:55;16.00;99.90
8593;DHT22;4334;49.982;8.398;2023-05-24T08:11:22;16.40;99.90
8593;DHT22;4334;49.982;8.398;2023-05-24T08:13:50;16.40;99.90
8593;DHT22;4334;49.982;8.398;2023-05-24T08:16:17;16.70;99.90
8593;DHT22;4334;49.982;8.398;2023-05-24T08:18:45;18.00;98.00
8593;DHT22;4334;49.982;8.398;2023-05-24T08:21:12;18.00;98.40
8593;DHT22;4334;49.982;8.398;2023-05-24T08:23:38;18.40;97.90
8593;DHT22;4334;49.982;8.398;2023-05-24T08:26:05;23.70;99.20
8593;DHT22;4334;49.982;8.398;2023-05-24T08:28:33;18.60;96.90
8593;DHT22;4334;49.982;8.398;2023-05-24T08:31:00;18.60;96.90
8593;DHT22;4334;49.982;8.398;2023-05-24T08:33:26;21.90;99.00
8593;DHT22;4334;49.982;8.398;2023-05-24T08:38:22;15.30;99.90
8593;DHT22;4334;49.982;8.398;2023-05-24T08:40:49;15.10;99.90
8593;DHT22;4334;49.982;8.398;2023-05-24T08:45:44;15.30;99.90
8593;DHT22;4334;49.982;8.398;2023-05-24T08:48:11;15.80;99.90
8593;DHT22;4334;49.982;8.398;2023-05-24T08:50:38;15.50;99.90
8593;DHT22;4334;49.982;8.398;2023-05-24T08:53:07;15.40;99.90
8593;DHT22;4334;49.982;8.398;2023-05-24T08:58:03;15.30;99.90
8593;DHT22;4334;49.982;8.398;2023-05-24T09:07:54;14.70;99.90
8593;DHT22;4334;49.982;8.398;2023-05-24T09:10:23;14.80;99.90
8593;DHT22;4334;49.982;8.398;2023-05-24T09:12:55;14.70;99.90
8593;DHT22;4334;49.982;8.398;2023-05-24T09:15:23;14.90;99.90
8593;DHT22;4334;49.982;8.398;2023-05-24T09:17:50;15.50;99.90
8593;DHT22;4334;49.982;8.398;2023-05-24T09:20:17;15.90;99.90
8593;DHT22;4334;49.982;8.398;2023-05-24T09:22:50;16.30;99.90
8593;DHT22;4334;49.982;8.398;2023-05-24T09:25:18;16.80;99.80
8593;DHT22;4334;49.982;8.398;2023-05-24T09:27:50;17.10;99.00
8593;DHT22;4334;49.982;8.398;2023-05-24T09:30:17;17.60;98.80
8593;DHT22;4334;49.982;8.398;2023-05-24T09:32:53;18.50;97.50
8593;DHT22;4334;49.982;8.398;2023-05-24T09:35:21;18.70;96.50
8593;DHT22;4334;49.982;8.398;2023-05-24T09:37:48;18.20;97.70
8593;DHT22;4334;49.982;8.398;2023-05-24T09:40:18;18.30;97.80
8593;DHT22;4334;49.982;8.398;2023-05-24T09:42:46;19.20;96.40
8593;DHT22;4334;49.982;8.398;2023-05-24T09:45:17;18.50;96.90
8593;DHT22;4334;49.982;8.398;2023-05-24T09:47:44;18.50;97.10
8593;DHT22;4334;49.982;8.398;2023-05-24T09:50:12;16.90;97.30
8593;DHT22;4334;49.982;8.398;2023-05-24T09:52:40;17.50;97.30
8593;DHT22;4334;49.982;8.398;2023-05-24T09:55:11;17.00;96.60
8593;DHT22;4334;49.982;8.398;2023-05-24T10:00:08;16.40;98.10
8593;DHT22;4334;49.982;8.398;2023-05-24T10:05:11;17.50;97.10
8593;DHT22;4334;49.982;8.398;2023-05-24T10:07:39;18.00;95.90
8593;DHT22;4334;49.982;8.398;2023-05-24T10:12:35;18.90;94.20
8593;DHT22;4334;49.982;8.398;2023-05-24T10:15:09;18.90;93.90
8593;DHT22;4334;49.982;8.398;2023-05-24T10:17:36;18.20;95.60
8593;DHT22;4334;49.982;8.398;2023-05-24T10:20:05;17.70;96.20
8593;DHT22;4334;49.982;8.398;2023-05-24T10:22:37;18.10;95.70
8593;DHT22;4334;49.982;8.398;2023-05-24T10:25:07;18.10;95.30
8593;DHT22;4334;49.982;8.398;2023-05-24T10:27:37;19.70;94.70
8593;DHT22;4334;49.982;8.398;2023-05-24T10:30:10;19.80;94.30
8593;DHT22;4334;49.982;8.398;2023-05-24T10:32:41;19.80;92.20
8593;DHT22;4334;49.982;8.398;2023-05-24T10:35:13;19.60;93.50
8593;DHT22;4334;49.982;8.398;2023-05-24T10:37:40;20.00;92.10
8593;DHT22;4334;49.982;8.398;2023-05-24T10:40:16;19.90;92.30
8593;DHT22;4334;49.982;8.398;2023-05-24T10:42:44;20.60;92.00
8593;DHT22;4334;49.982;8.398;2023-05-24T10:45:36;21.10;91.60
8593;DHT22;4334;49.982;8.398;2023-05-24T10:48:31;20.90;90.60
8593;DHT22;4334;49.982;8.398;2023-05-24T10:51:33;18.70;93.10
8593;DHT22;4334;49.982;8.398;2023-05-24T10:54:17;18.20;93.70
8593;DHT22;4334;49.982;8.398;2023-05-24T10:56:46;18.00;93.60
8593;DHT22;4334;49.982;8.398;2023-05-24T10:59:28;17.80;93.50
8593;DHT22;4334;49.982;8.398;2023-05-24T11:01:56;18.10;95.00
8593;DHT22;4334;49.982;8.398;2023-05-24T11:06:59;19.00;94.00
8593;DHT22;4334;49.982;8.398;2023-05-24T11:11:59;19.10;92.50
8593;DHT22;4334;49.982;8.398;2023-05-24T11:14:28;18.90;91.60
8593;DHT22;4334;49.982;8.398;2023-05-24T11:16:56;18.10;92.60
8593;DHT22;4334;49.982;8.398;2023-05-24T11:19:29;17.60;93.50
8593;DHT22;4334;49.982;8.398;2023-05-24T11:21:58;18.00;94.00
8593;DHT22;4334;49.982;8.398;2023-05-24T11:24:27;18.20;93.20
8593;DHT22;4334;49.982;8.398;2023-05-24T11:26:55;18.50;92.60
8593;DHT22;4334;49.982;8.398;2023-05-24T11:29:22;19.90;91.90
8593;DHT22;4334;49.982;8.398;2023-05-24T11:31:54;20.60;90.30
8593;DHT22;4334;49.982;8.398;2023-05-24T11:34:22;20.20;90.30
8593;DHT22;4334;49.982;8.398;2023-05-24T11:39:21;18.70;91.60
8593;DHT22;4334;49.982;8.398;2023-05-24T11:41:48;18.60;92.20
8593;DHT22;4334;49.982;8.398;2023-05-24T11:44:16;18.00;91.70
8593;DHT22;4334;49.982;8.398;2023-05-24T11:49:12;17.80;93.20
8593;DHT22;4334;49.982;8.398;2023-05-24T11:51:39;17.80;93.90
8593;DHT22;4334;49.982;8.398;2023-05-24T11:54:05;17.60;92.90
8593;DHT22;4334;49.982;8.398;2023-05-24T11:56:35;17.50;92.90
8593;DHT22;4334;49.982;8.398;2023-05-24T12:01:35;17.90;92.90
8593;DHT22;4334;49.982;8.398;2023-05-24T12:04:04;17.60;92.70
8593;DHT22;4334;49.982;8.398;2023-05-24T12:06:35;17.80;92.70
8593;DHT22;4334;49.982;8.398;2023-05-24T12:09:02;17.80;92.90
8593;DHT22;4334;49.982;8.398;2023-05-24T12:11:34;18.00;93.30
8593;DHT22;4334;49.982;8.398;2023-05-24T12:14:01;19.00;92.40
8593;DHT22;4334;49.982;8.398;2023-05-24T12:16:28;20.30;89.00
8593;DHT22;4334;49.982;8.398;2023-05-24T12:21:24;20.80;89.60
8593;DHT22;4334;49.982;8.398;2023-05-24T12:26:23;20.60;85.90
8593;DHT22;4334;49.982;8.398;2023-05-24T12:28:54;19.90;88.50
8593;DHT22;4334;49.982;8.398;2023-05-24T12:31:21;19.10;89.40
8593;DHT22;4334;49.982;8.398;2023-05-24T12:41:10;17.60;91.40
8593;DHT22;4334;49.982;8.398;2023-05-24T12:46:07;17.60;91.70
8593;DHT22;4334;49.982;8.398;2023-05-24T12:48:34;17.80;91.10
8593;DHT22;4334;49.982;8.398;2023-05-24T12:51:01;17.60;91.60
8593;DHT22;4334;49.982;8.398;2023-05-24T12:53:28;17.70;91.10
8593;DHT22;4334;49.982;8.398;2023-05-24T12:55:55;17.80;91.30
8593;DHT22;4334;49.982;8.398;2023-05-24T12:58:22;17.70;92.20
8593;DHT22;4334;49.982;8.398;2023-05-24T13:00:48;17.90;90.50
8593;DHT22;4334;49.982;8.398;2023-05-24T13:03:17;17.80;91.00
8593;DHT22;4334;49.982;8.398;2023-05-24T13:10:39;17.50;91.20
8593;DHT22;4334;49.982;8.398;2023-05-24T13:15:33;16.50;91.90
8593;DHT22;4334;49.982;8.398;2023-05-24T13:20:33;16.50;92.50
8593;DHT22;4334;49.982;8.398;2023-05-24T13:32:53;16.80;92.30
8593;DHT22;4334;49.982;8.398;2023-05-24T13:37:48;16.60;92.20
8593;DHT22;4334;49.982;8.398;2023-05-24T13:47:39;18.90;93.90
8593;DHT22;4334;49.982;8.398;2023-05-24T13:50:08;16.00;93.00
8593;DHT22;4334;49.982;8.398;2023-05-24T13:55:05;16.00;93.30
8593;DHT22;4334;49.982;8.398;2023-05-24T13:59:59;16.10;93.90
8593;DHT22;4334;49.982;8.398;2023-05-24T14:02:26;16.00;94.00
8593;DHT22;4334;49.982;8.398;2023-05-24T14:07:20;16.30;94.00
8593;DHT22;4334;49.982;8.398;2023-05-24T14:12:15;16.20;94.00
8593;DHT22;4334;49.982;8.398;2023-05-24T14:14:42;16.00;94.10
8593;DHT22;4334;49.982;8.398;2023-05-24T14:17:10;16.30;94.30
8593;DHT22;4334;49.982;8.398;2023-05-24T14:19:37;16.60;93.70
8593;DHT22;4334;49.982;8.398;2023-05-24T14:22:04;16.70;94.00
8593;DHT22;4334;49.982;8.398;2023-05-24T14:24:33;16.80;94.50
8593;DHT22;4334;49.982;8.398;2023-05-24T14:27:00;17.30;93.60
8593;DHT22;4334;49.982;8.398;2023-05-24T14:29:30;17.40;93.90
8593;DHT22;4334;49.982;8.398;2023-05-24T14:31:56;17.80;92.50
8593;DHT22;4334;49.982;8.398;2023-05-24T14:34:23;18.10;91.50
8593;DHT22;4334;49.982;8.398;2023-05-24T14:36:50;22.20;93.90
8593;DHT22;4334;49.982;8.398;2023-05-24T14:39:17;17.70;92.70
8593;DHT22;4334;49.982;8.398;2023-05-24T14:41:44;17.50;93.10
8593;DHT22;4334;49.982;8.398;2023-05-24T14:44:10;18.40;92.60
8593;DHT22;4334;49.982;8.398;2023-05-24T14:46:39;18.60;92.60
8593;DHT22;4334;49.982;8.398;2023-05-24T14:49:06;18.50;91.70
8593;DHT22;4334;49.982;8.398;2023-05-24T14:51:33;18.40;91.60
8593;DHT22;4334;49.982;8.398;2023-05-24T14:54:00;17.80;92.50
8593;DHT22;4334;49.982;8.398;2023-05-24T14:56:27;17.80;93.00
8593;DHT22;4334;49.982;8.398;2023-05-24T14:58:57;17.30;91.70
8593;DHT22;4334;49.982;8.398;2023-05-24T15:01:24;17.20;90.90
8593;DHT22;4334;49.982;8.398;2023-05-24T15:03:52;17.20;91.10
8593;DHT22;4334;49.982;8.398;2023-05-24T15:06:19;16.70;91.20
8593;DHT22;4334;49.982;8.398;2023-05-24T15:11:12;16.30;92.00
8593;DHT22;4334;49.982;8.398;2023-05-24T15:13:41;16.40;92.30
8593;DHT22;4334;49.982;8.398;2023-05-24T15:18:35;16.80;92.60
8593;DHT22;4334;49.982;8.398;2023-05-24T15:21:03;16.80;92.80
8593;DHT22;4334;49.982;8.398;2023-05-24T15:23:30;16.90;92.10
8593;DHT22;4334;49.982;8.398;2023-05-24T15:25:57;16.90;92.20
8593;DHT22;4334;49.982;8.398;2023-05-24T15:28:24;16.80;93.70
8593;DHT22;4334;49.982;8.398;2023-05-24T15:30:51;17.20;92.50
8593;DHT22;4334;49.982;8.398;2023-05-24T15:33:18;17.10;92.50
8593;DHT22;4334;49.982;8.398;2023-05-24T15:35:45;17.20;93.30
8593;DHT22;4334;49.982;8.398;2023-05-24T15:38:13;17.30;92.70
8593;DHT22;4334;49.982;8.398;2023-05-24T15:40:42;17.30;92.90
8593;DHT22;4334;49.982;8.398;2023-05-24T15:43:08;17.20;92.80
8593;DHT22;4334;49.982;8.398;2023-05-24T15:45:35;17.30;93.30
8593;DHT22;4334;49.982;8.398;2023-05-24T15:48:02;18.00;93.30
8593;DHT22;4334;49.982;8.398;2023-05-24T15:50:30;18.40;92.30
8593;DHT22;4334;49.982;8.398;2023-05-24T15:52:57;18.10;92.30
8593;DHT22;4334;49.982;8.398;2023-05-24T15:55:25;18.10;92.40
8593;DHT22;4334;49.982;8.398;2023-05-24T15:57:51;18.10;92.50
8593;DHT22;4334;49.982;8.398;2023-05-24T16:00:18;18.50;91.80
8593;DHT22;4334;49.982;8.398;2023-05-24T16:02:45;18.60;90.40
8593;DHT22;4334;49.982;8.398;2023-05-24T16:05:12;18.70;90.50
8593;DHT22;4334;49.982;8.398;2023-05-24T16:07:39;18.60;90.80
8593;DHT22;4334;49.982;8.398;2023-05-24T16:10:06;18.50;91.30
8593;DHT22;4334;49.982;8.398;2023-05-24T16:12:35;18.40;90.60
8593;DHT22;4334;49.982;8.398;2023-05-24T16:15:02;18.40;90.30
8593;DHT22;4334;49.982;8.398;2023-05-24T16:17:29;18.20;89.60
8593;DHT22;4334;49.982;8.398;2023-05-24T16:19:55;18.40;90.00
8593;DHT22;4334;49.982;8.398;2023-05-24T16:22:23;18.50;88.40
8593;DHT22;4334;49.982;8.398;2023-05-24T16:24:50;18.70;90.20
8593;DHT22;4334;49.982;8.398;2023-05-24T16:27:19;18.60;86.10
8593;DHT22;4334;49.982;8.398;2023-05-24T16:29:47;18.30;85.30
8593;DHT22;4334;49.982;8.398;2023-05-24T16:32:14;17.90;86.20
8593;DHT22;4334;49.982;8.398;2023-05-24T16:34:40;17.90;87.70
8593;DHT22;4334;49.982;8.398;2023-05-24T16:37:07;17.80;88.70
8593;DHT22;4334;49.982;8.398;2023-05-24T16:39:34;17.80;88.10
8593;DHT22;4334;49.982;8.398;2023-05-24T16:42:03;18.00;89.40
8593;DHT22;4334;49.982;8.398;2023-05-24T16:44:31;17.40;88.10
8593;DHT22;4334;49.982;8.398;2023-05-24T16:46:59;17.00;86.80
8593;DHT22;4334;49.982;8.398;2023-05-24T16:49:26;18.20;90.20
8593;DHT22;4334;49.982;8.398;2023-05-24T16:51:53;17.10;87.40
8593;DHT22;4334;49.982;8.398;2023-05-24T16:54:20;16.80;87.80
8593;DHT22;4334;49.982;8.398;2023-05-24T16:56:47;16.90;88.60
8593;DHT22;4334;49.982;8.398;2023-05-24T16:59:13;17.00;87.30
8593;DHT22;4334;49.982;8.398;2023-05-24T17:01:41;16.50;87.80
8593;DHT22;4334;49.982;8.398;2023-05-24T17:04:10;16.40;89.30
8593;DHT22;4334;49.982;8.398;2023-05-24T17:06:37;16.50;89.90
8593;DHT22;4334;49.982;8.398;2023-05-24T17:11:31;16.20;89.50
8593;DHT22;4334;49.982;8.398;2023-05-24T17:13:58;16.20;89.50
8593;DHT22;4334;49.982;8.398;2023-05-24T17:16:24;16.50;90.70
8593;DHT22;4334;49.982;8.398;2023-05-24T17:18:52;16.50;90.60
8593;DHT22;4334;49.982;8.398;2023-05-24T17:21:21;16.50;90.20
8593;DHT22;4334;49.982;8.398;2023-05-24T17:26:20;16.60;90.80
8593;DHT22;4334;49.982;8.398;2023-05-24T17:28:47;16.70;91.60
8593;DHT22;4334;49.982;8.398;2023-05-24T17:31:14;16.70;90.20
8593;DHT22;4334;49.982;8.398;2023-05-24T17:33:41;16.50;89.80
8593;DHT22;4334;49.982;8.398;2023-05-24T17:36:08;16.50;90.00
8593;DHT22;4334;49.982;8.398;2023-05-24T17:38:36;16.80;89.00
8593;DHT22;4334;49.982;8.398;2023-05-24T17:41:04;16.70;89.50
8593;DHT22;4334;49.982;8.398;2023-05-24T17:46:03;16.20;89.50
8593;DHT22;4334;49.982;8.398;2023-05-24T17:48:32;16.10;90.00
8593;DHT22;4334;49.982;8.398;2023-05-24T17:50:59;16.00;90.50
8593;DHT22;4334;49.982;8.398;2023-05-24T17:53:26;18.40;91.90
8593;DHT22;4334;49.982;8.398;2023-05-24T17:55:56;16.10;90.90
8593;DHT22;4334;49.982;8.398;2023-05-24T17:58:23;16.10;91.00
8593;DHT22;4334;49.982;8.398;2023-05-24T18:00:50;16.10;91.10
8593;DHT22;4334;49.982;8.398;2023-05-24T18:03:17;16.00;91.00
8593;DHT22;4334;49.982;8.398;2023-05-24T18:08:11;15.90;91.70
8593;DHT22;4334;49.982;8.398;2023-05-24T18:13:06;15.70;92.30
8593;DHT22;4334;49.982;8.398;2023-05-24T18:15:33;15.70;92.80
8593;DHT22;4334;49.982;8.398;2023-05-24T18:18:00;15.70;93.20
8593;DHT22;4334;49.982;8.398;2023-05-24T18:20:27;15.70;92.90
8593;DHT22;4334;49.982;8.398;2023-05-24T18:22:54;15.80;93.40
8593;DHT22;4334;49.982;8.398;2023-05-24T18:25:21;15.70;93.80
8593;DHT22;4334;49.982;8.398;2023-05-24T18:27:48;15.70;94.20
8593;DHT22;4334;49.982;8.398;2023-05-24T18:30:16;15.70;94.00
8593;DHT22;4334;49.982;8.398;2023-05-24T18:32:43;15.50;93.70
8593;DHT22;4334;49.982;8.398;2023-05-24T18:35:11;15.30;94.40
8593;DHT22;4334;49.982;8.398;2023-05-24T18:37:38;15.30;94.60
8593;DHT22;4334;49.982;8.398;2023-05-24T18:40:06;15.20;95.00
8593;DHT22;4334;49.982;8.398;2023-05-24T18:45:00;14.80;95.30
8593;DHT22;4334;49.982;8.398;2023-05-24T18:47:31;14.80;95.50
8593;DHT22;4334;49.982;8.398;2023-05-24T19:02:16;13.80;98.40
8593;DHT22;4334;49.982;8.398;2023-05-24T19:04:44;13.60;98.30
8593;DHT22;4334;49.982;8.398;2023-05-24T19:14:35;13.30;99.90
8593;DHT22;4334;49.982;8.398;2023-05-24T19:21:58;12.90;99.90
8593;DHT22;4334;49.982;8.398;2023-05-24T19:39:11;12.50;99.90
8593;DHT22;4334;49.982;8.398;2023-05-24T19:48:59;12.30;99.90
8593;DHT22;4334;49.982;8.398;2023-05-24T19:56:22;12.20;99.90
8593;DHT22;4334;49.982;8.398;2023-05-24T20:06:13;11.90;99.90
8593;DHT22;4334;49.982;8.398;2023-05-24T20:13:36;11.70;99.90
8593;DHT22;4334;49.982;8.398;2023-05-24T20:30:50;11.50;99.90
8593;DHT22;4334;49.982;8.398;2023-05-24T20:48:02;11.60;99.90
8593;DHT22;4334;49.982;8.398;2023-05-24T21:00:17;11.60;99.90
8593;DHT22;4334;49.982;8.398;2023-05-24T21:05:12;11.90;99.90
8593;DHT22;4334;49.982;8.398;2023-05-24T21:10:07;11.90;99.90
8593;DHT22;4334;49.982;8.398;2023-05-24T21:56:47;11.50;99.90
8593;DHT22;4334;49.982;8.398;2023-05-24T22:31:18;11.10;99.90
8593;DHT22;4334;49.982;8.398;2023-05-24T22:48:31;10.80;99.90
8593;DHT22;4334;49.982;8.398;2023-05-24T23:05:45;11.10;99.90
8593;DHT22;4334;49.982;8.398;2023-05-24T23:18:04;11.20;99.90
8593;DHT22;4334;49.982;8.398;2023-05-24T23:23:00;11.30;99.90
8593;DHT22;4334;49.982;8.398;2023-05-24T23:40:12;11.20;99.90
8593;DHT22;4334;49.982;8.398;2023-05-24T23:45:06;11.10;99.90
